Time;durP1;ratioP1;P1;durP2;ratioP2;P2;SDS_P1;SDS_P2;PMS_P1;PMS_P2;Temp;Humidity;BMP_temperature;BMP_pressure;BME280_temperature;BME280_humidity;BME280_pressure;Samples;Min_cycle;Max_cycle;Signal;HPM_P1;HPM_P2
2022/09/23 00:02:06;;;;;;;8.60;6.50;;;22.00;45.70;;;;;;5018951;28;20428;-82
2022/09/23 00:04:34;;;;;;;9.60;6.77;;;22.00;45.60;;;;;;5008572;28;20477;-81
2022/09/23 00:07:02;;;;;;;9.23;6.40;;;22.00;45.70;;;;;;5019401;28;20455;-83
2022/09/23 00:09:31;;;;;;;9.93;6.63;;;21.90;46.30;;;;;;5018200;28;20459;-82
2022/09/23 00:12:01;;;;;;;12.00;6.33;;;21.90;45.80;;;;;;5012715;28;20452;-85
2022/09/23 00:14:36;;;;;;;14.70;6.73;;;21.90;45.70;;;;;;5008315;28;20421;-82
2022/09/23 00:17:04;;;;;;;6.70;5.80;;;21.80;45.80;;;;;;5009969;28;20442;-84
2022/09/23 00:19:32;;;;;;;9.83;6.97;;;21.80;45.70;;;;;;5011952;28;20484;-83
2022/09/23 00:22:00;;;;;;;9.13;6.43;;;21.80;46.00;;;;;;5007934;28;20477;-84
2022/09/23 00:24:31;;;;;;;8.83;5.70;;;21.80;45.80;;;;;;5021316;28;20450;-86
2022/09/23 00:27:00;;;;;;;7.03;5.80;;;21.80;46.00;;;;;;5010142;28;20443;-84
2022/09/23 00:29:28;;;;;;;9.60;5.90;;;21.80;45.80;;;;;;5026730;28;20470;-80
2022/09/23 00:31:57;;;;;;;10.13;5.90;;;21.80;45.90;;;;;;5015644;28;20464;-86
2022/09/23 00:34:25;;;;;;;11.80;6.80;;;21.80;46.00;;;;;;5009979;28;20428;-83
2022/09/23 00:36:53;;;;;;;9.60;5.53;;;21.80;45.90;;;;;;5003493;28;20500;-82
2022/09/23 00:39:21;;;;;;;9.07;5.90;;;21.80;45.90;;;;;;5007181;28;20443;-83
2022/09/23 00:41:49;;;;;;;11.00;6.20;;;21.70;45.80;;;;;;5007630;28;20481;-85
2022/09/23 00:44:42;;;;;;;8.80;5.83;;;21.70;45.80;;;;;;5019343;28;20445;-82
2022/09/23 00:47:12;;;;;;;10.33;5.90;;;21.60;46.00;;;;;;5008781;28;20480;-84
2022/09/23 00:49:41;;;;;;;6.40;5.50;;;21.60;46.00;;;;;;5017065;28;20448;-83
2022/09/23 00:52:11;;;;;;;8.90;5.80;;;21.60;46.00;;;;;;5009544;28;20477;-84
2022/09/23 00:54:39;;;;;;;7.33;5.40;;;21.60;46.00;;;;;;5008181;28;20461;-82
2022/09/23 00:57:07;;;;;;;6.57;5.00;;;21.60;46.00;;;;;;5019696;28;20431;-83
2022/09/23 00:59:36;;;;;;;8.33;4.97;;;21.60;46.00;;;;;;5000331;28;20444;-84
2022/09/23 01:02:05;;;;;;;10.33;5.90;;;21.50;45.90;;;;;;5016302;28;20479;-83
2022/09/23 01:04:34;;;;;;;6.13;4.80;;;21.50;46.10;;;;;;5007393;28;20471;-84
2022/09/23 01:07:02;;;;;;;6.97;5.23;;;21.50;45.90;;;;;;5009714;28;20451;-83
2022/09/23 01:09:30;;;;;;;6.10;5.23;;;21.50;45.90;;;;;;5008677;28;20515;-83
2022/09/23 01:12:02;;;;;;;7.23;5.10;;;21.40;46.00;;;;;;5005532;28;20453;-83
2022/09/23 01:14:36;;;;;;;5.80;4.40;;;21.40;46.10;;;;;;5018216;28;20457;-83
2022/09/23 01:17:09;;;;;;;5.53;4.87;;;21.40;46.10;;;;;;5007013;28;20484;-82
2022/09/23 01:19:48;;;;;;;6.07;4.40;;;21.30;46.00;;;;;;5014725;28;20479;-82
2022/09/23 01:22:18;;;;;;;8.27;4.70;;;21.30;46.10;;;;;;5007736;28;20463;-81
2022/09/23 01:24:48;;;;;;;9.70;4.50;;;21.40;46.40;;;;;;5013778;28;20975;-83
2022/09/23 01:27:29;;;;;;;5.77;4.97;;;21.40;46.20;;;;;;5015505;28;20440;-82
2022/09/23 01:30:17;;;;;;;7.17;4.87;;;21.40;46.20;;;;;;5013799;28;20479;-82
2022/09/23 01:33:03;;;;;;;6.90;5.07;;;21.40;46.20;;;;;;5002889;28;20473;-83
2022/09/23 01:35:41;;;;;;;7.20;4.90;;;21.20;45.90;;;;;;5000498;28;20452;-82
2022/09/23 01:38:15;;;;;;;5.07;4.57;;;21.20;46.20;;;;;;5014719;28;20501;-84
2022/09/23 01:40:48;;;;;;;9.30;4.67;;;21.30;46.30;;;;;;5007692;28;20479;-85
2022/09/23 01:43:19;;;;;;;5.67;4.17;;;21.20;46.10;;;;;;5015896;28;20477;-85
2022/09/23 01:45:48;;;;;;;6.73;4.80;;;21.20;46.40;;;;;;5003691;28;20449;-83
2022/09/23 01:48:19;;;;;;;5.00;4.30;;;21.20;46.30;;;;;;5017763;28;20454;-82
2022/09/23 01:50:58;;;;;;;5.43;4.37;;;21.30;46.50;;;;;;5014413;28;20468;-84
2022/09/23 01:53:32;;;;;;;5.80;4.13;;;21.20;46.00;;;;;;5015931;28;20460;-82
2022/09/23 01:56:03;;;;;;;5.90;4.90;;;21.20;46.10;;;;;;5007881;28;20412;-82
2022/09/23 01:58:33;;;;;;;5.70;4.33;;;21.20;46.40;;;;;;5014303;28;20462;-84
2022/09/23 02:01:03;;;;;;;6.37;4.60;;;21.20;46.30;;;;;;5012880;28;20466;-81
2022/09/23 02:03:34;;;;;;;6.63;3.97;;;21.10;46.30;;;;;;5006864;28;20432;-82
2022/09/23 02:06:03;;;;;;;6.13;4.77;;;21.10;46.40;;;;;;5015282;28;20455;-85
2022/09/23 02:08:34;;;;;;;8.20;4.70;;;21.10;46.20;;;;;;5008106;28;20553;-81
2022/09/23 02:11:03;;;;;;;7.67;3.97;;;21.10;46.30;;;;;;5009548;28;20532;-83
2022/09/23 02:13:34;;;;;;;8.93;5.10;;;21.10;46.40;;;;;;5011189;28;20450;-83
2022/09/23 02:16:10;;;;;;;11.20;4.50;;;21.10;46.50;;;;;;5016776;28;20456;-84
2022/09/23 02:18:41;;;;;;;5.20;4.23;;;21.10;46.20;;;;;;5003566;28;20424;-83
2022/09/23 02:21:10;;;;;;;6.13;4.83;;;21.10;46.60;;;;;;5019825;28;20477;-83
2022/09/23 02:23:41;;;;;;;6.33;4.30;;;21.10;46.20;;;;;;5020684;28;20424;-83
2022/09/23 02:26:14;;;;;;;6.07;4.53;;;21.00;46.20;;;;;;5011479;28;20529;-85
2022/09/23 02:28:46;;;;;;;9.63;6.67;;;21.10;46.50;;;;;;5020445;28;20469;-85
2022/09/23 02:31:16;;;;;;;9.40;6.30;;;21.10;46.40;;;;;;5008626;28;20436;-84
2022/09/23 02:33:50;;;;;;;8.60;7.03;;;21.10;46.00;;;;;;5018081;28;20516;-83
2022/09/23 02:36:21;;;;;;;13.83;8.97;;;21.00;46.30;;;;;;5016448;28;20473;-86
2022/09/23 02:38:50;;;;;;;17.43;11.20;;;21.10;46.20;;;;;;5018056;28;20427;-86
2022/09/23 02:41:21;;;;;;;15.20;10.33;;;21.10;46.40;;;;;;5008970;28;20469;-86
2022/09/23 02:43:51;;;;;;;17.77;11.57;;;21.00;46.10;;;;;;5009941;28;20541;-84
2022/09/23 02:46:19;;;;;;;15.77;10.90;;;21.00;46.20;;;;;;5022493;28;20430;-84
2022/09/23 02:48:50;;;;;;;20.37;13.73;;;21.00;46.20;;;;;;5014418;28;20440;-83
2022/09/23 02:51:18;;;;;;;20.63;13.83;;;21.00;46.00;;;;;;5024627;28;20524;-86
2022/09/23 02:53:46;;;;;;;22.03;14.60;;;21.00;46.30;;;;;;5013409;28;20446;-85
2022/09/23 02:56:15;;;;;;;19.50;13.40;;;21.00;46.20;;;;;;5016110;28;20457;-84
2022/09/23 02:58:44;;;;;;;23.93;15.30;;;21.00;46.20;;;;;;5025303;28;20492;-85
2022/09/23 03:01:17;;;;;;;21.47;14.40;;;20.90;46.00;;;;;;5012136;28;20565;-84
2022/09/23 03:03:49;;;;;;;24.13;14.60;;;20.90;46.50;;;;;;5020800;28;20513;-86
2022/09/23 03:06:27;;;;;;;23.73;15.03;;;20.90;46.10;;;;;;5010469;28;20473;-84
2022/09/23 03:08:59;;;;;;;28.50;15.20;;;20.90;46.40;;;;;;5019304;28;20472;-84
2022/09/23 03:11:27;;;;;;;20.60;13.97;;;20.90;46.50;;;;;;5006043;28;20420;-83
2022/09/23 03:14:05;;;;;;;24.37;15.73;;;20.90;46.20;;;;;;5010080;28;20428;-83
2022/09/23 03:16:36;;;;;;;25.17;16.23;;;20.90;46.30;;;;;;5010177;28;20435;-86
2022/09/23 03:19:16;;;;;;;22.70;16.07;;;20.80;46.30;;;;;;5010172;28;20454;-85
2022/09/23 03:21:46;;;;;;;24.50;16.13;;;20.80;46.30;;;;;;5012088;28;20445;-83
2022/09/23 03:24:14;;;;;;;28.33;15.73;;;20.80;46.50;;;;;;5008876;28;20442;-83
2022/09/23 03:26:45;;;;;;;25.93;16.07;;;20.80;46.40;;;;;;5017780;28;20434;-87
2022/09/23 03:29:13;;;;;;;19.90;15.07;;;20.80;46.50;;;;;;5011761;28;20432;-84
2022/09/23 03:31:41;;;;;;;21.90;15.53;;;20.80;46.20;;;;;;5015132;28;20517;-85
2022/09/23 03:34:14;;;;;;;24.00;16.60;;;20.80;46.40;;;;;;5015183;28;20465;-83
2022/09/23 03:36:52;;;;;;;22.83;15.00;;;20.80;46.60;;;;;;5010985;28;20472;-86
2022/09/23 03:39:26;;;;;;;22.93;15.10;;;20.80;46.30;;;;;;5014306;28;20465;-84
2022/09/23 03:41:56;;;;;;;25.40;15.87;;;20.60;46.30;;;;;;5006825;28;20459;-86
2022/09/23 03:44:24;;;;;;;23.30;14.93;;;20.70;46.80;;;;;;5016922;28;20456;-82
2022/09/23 03:46:52;;;;;;;22.30;15.10;;;20.70;46.40;;;;;;5009168;28;20464;-83
2022/09/23 03:49:26;;;;;;;22.97;14.57;;;20.70;46.30;;;;;;5019290;28;20472;-84
2022/09/23 03:51:54;;;;;;;23.07;15.07;;;20.60;46.50;;;;;;5005804;28;20473;-83
2022/09/23 03:54:22;;;;;;;20.60;13.97;;;20.60;46.60;;;;;;5013412;28;20431;-83
2022/09/23 03:56:51;;;;;;;21.30;14.87;;;20.70;46.40;;;;;;5004563;28;20836;-82
2022/09/23 03:59:19;;;;;;;22.20;14.73;;;20.70;46.40;;;;;;5006574;28;20424;-84
2022/09/23 04:01:47;;;;;;;23.50;13.60;;;20.70;46.30;;;;;;5025915;28;20455;-85
2022/09/23 04:04:15;;;;;;;21.27;14.73;;;20.60;46.50;;;;;;5010045;28;20464;-85
2022/09/23 04:06:45;;;;;;;19.80;13.17;;;20.60;46.40;;;;;;5013376;28;20541;-83
2022/09/23 04:09:13;;;;;;;18.40;13.10;;;20.60;46.40;;;;;;5006966;28;20469;-84
2022/09/23 04:11:41;;;;;;;21.03;13.80;;;20.60;46.70;;;;;;5017338;28;20431;-83
2022/09/23 04:14:11;;;;;;;20.20;13.87;;;20.60;46.40;;;;;;5003899;28;20453;-86
2022/09/23 04:16:38;;;;;;;18.60;13.00;;;20.60;46.40;;;;;;5006892;28;20457;-84
2022/09/23 04:19:08;;;;;;;17.80;12.73;;;20.60;46.40;;;;;;5017526;28;20473;-83
2022/09/23 04:21:38;;;;;;;19.23;12.80;;;20.60;46.40;;;;;;5009096;28;20478;-84
2022/09/23 04:24:08;;;;;;;17.90;12.20;;;20.60;46.30;;;;;;5020834;28;20420;-81
2022/09/23 04:26:36;;;;;;;18.17;12.33;;;20.60;46.70;;;;;;5015104;28;20453;-85
2022/09/23 04:29:04;;;;;;;19.10;12.47;;;20.50;46.40;;;;;;5013963;28;20470;-84
2022/09/23 04:31:33;;;;;;;17.20;11.67;;;20.50;46.50;;;;;;5016690;28;20453;-83
2022/09/23 04:34:01;;;;;;;17.63;12.20;;;20.50;46.50;;;;;;5011652;28;20493;-84
2022/09/23 04:36:30;;;;;;;16.80;11.60;;;20.50;46.80;;;;;;5018333;28;20481;-82
2022/09/23 04:38:58;;;;;;;18.63;12.50;;;20.50;46.40;;;;;;5008363;28;20464;-83
2022/09/23 04:41:27;;;;;;;17.73;12.07;;;20.50;46.60;;;;;;5018845;28;20499;-83
2022/09/23 04:43:57;;;;;;;16.00;11.20;;;20.60;46.60;;;;;;5008567;28;20453;-84
2022/09/23 04:46:25;;;;;;;17.77;11.60;;;20.50;46.20;;;;;;5010764;28;20484;-84
2022/09/23 04:48:53;;;;;;;16.83;11.40;;;20.50;46.30;;;;;;5005534;28;20444;-84
2022/09/23 04:51:22;;;;;;;16.20;11.40;;;20.40;46.40;;;;;;5005210;28;20472;-83
2022/09/23 04:53:51;;;;;;;14.17;11.30;;;20.40;46.80;;;;;;5020461;28;20449;-83
2022/09/23 04:56:21;;;;;;;15.97;11.20;;;20.40;46.60;;;;;;5010395;28;20464;-85
2022/09/23 05:09:30;;;;;;;12.30;9.33;;;20.50;46.30;;;;;;5031943;28;20597;-81
2022/09/23 05:11:59;;;;;;;14.37;10.17;;;19.80;47.80;;;;;;5011778;28;20460;-81
2022/09/23 05:14:27;;;;;;;13.47;9.30;;;19.90;47.30;;;;;;5008172;28;20502;-80
2022/09/23 05:16:54;;;;;;;16.77;10.33;;;20.00;47.30;;;;;;5006739;28;20448;-82
2022/09/23 05:19:23;;;;;;;14.60;9.73;;;20.10;47.20;;;;;;5005566;28;21021;-82
2022/09/23 05:21:51;;;;;;;12.50;9.17;;;20.10;46.80;;;;;;5011015;28;20460;-81
2022/09/23 05:24:20;;;;;;;15.03;10.00;;;20.10;46.80;;;;;;5012424;28;20483;-81
2022/09/23 05:26:49;;;;;;;13.30;9.70;;;20.00;46.80;;;;;;5006596;28;20533;-81
2022/09/23 05:29:17;;;;;;;13.23;9.07;;;20.00;46.80;;;;;;5012281;28;20431;-81
2022/09/23 05:31:45;;;;;;;13.43;9.40;;;20.10;47.00;;;;;;5006373;28;20461;-81
2022/09/23 05:34:13;;;;;;;14.77;8.90;;;20.10;46.70;;;;;;5009448;28;20479;-80
2022/09/23 05:36:41;;;;;;;12.87;8.97;;;20.10;46.90;;;;;;5002126;28;20456;-81
2022/09/23 05:39:09;;;;;;;11.70;9.03;;;20.10;46.90;;;;;;5012403;28;20484;-81
2022/09/23 05:41:39;;;;;;;10.77;8.03;;;20.20;46.70;;;;;;5014495;28;20434;-81
2022/09/23 05:44:08;;;;;;;12.17;8.30;;;20.10;46.90;;;;;;5004988;28;20461;-82
2022/09/23 05:46:36;;;;;;;11.97;8.27;;;20.10;46.90;;;;;;5007980;28;20462;-82
2022/09/23 05:49:05;;;;;;;10.70;8.20;;;20.10;46.30;;;;;;5006075;28;20537;-82
2022/09/23 05:51:34;;;;;;;12.13;8.30;;;20.10;46.60;;;;;;5013234;28;20871;-81
2022/09/23 05:54:02;;;;;;;11.53;8.40;;;20.10;47.10;;;;;;5006241;28;20456;-81
2022/09/23 05:56:31;;;;;;;12.03;8.07;;;20.20;46.90;;;;;;5007908;28;20453;-81
2022/09/23 05:58:59;;;;;;;8.93;7.23;;;20.20;46.70;;;;;;5001983;28;20469;-81
2022/09/23 06:01:30;;;;;;;10.77;7.63;;;20.20;46.70;;;;;;5009731;28;20528;-81
2022/09/23 06:03:59;;;;;;;8.53;7.27;;;20.10;46.70;;;;;;5011918;28;20448;-81
2022/09/23 06:06:28;;;;;;;11.47;8.20;;;20.10;46.80;;;;;;5002203;28;20487;-81
2022/09/23 06:08:57;;;;;;;12.87;8.90;;;20.20;46.60;;;;;;5001277;28;20457;-80
2022/09/23 06:11:25;;;;;;;10.93;8.00;;;20.10;46.60;;;;;;4996062;28;20472;-79
2022/09/23 06:13:54;;;;;;;11.73;7.73;;;20.20;47.00;;;;;;4986905;28;20525;-80
2022/09/23 06:16:22;;;;;;;10.33;7.33;;;20.20;46.80;;;;;;4982434;28;20466;-80
2022/09/23 06:18:52;;;;;;;8.70;7.10;;;20.20;46.70;;;;;;4986770;28;20564;-81
2022/09/23 06:21:20;;;;;;;11.03;7.60;;;20.20;46.50;;;;;;4999870;28;20469;-81
2022/09/23 06:23:48;;;;;;;10.30;7.40;;;20.20;46.20;;;;;;4989488;28;20454;-81
2022/09/23 06:26:22;;;;;;;10.67;7.30;;;20.10;46.30;;;;;;4991892;28;20524;-81
2022/09/23 06:28:50;;;;;;;10.43;7.50;;;20.10;46.60;;;;;;4993250;28;20461;-81
2022/09/23 06:31:18;;;;;;;8.20;6.30;;;20.20;46.80;;;;;;4999419;28;20476;-81
2022/09/23 06:33:46;;;;;;;8.17;6.83;;;20.20;46.60;;;;;;4998149;28;20460;-80
2022/09/23 06:36:15;;;;;;;8.80;6.80;;;20.30;46.70;;;;;;4992165;28;20828;-81
2022/09/23 06:39:03;;;;;;;8.47;6.97;;;20.30;46.40;;;;;;4990599;28;20995;-81
2022/09/23 06:41:31;;;;;;;8.63;6.27;;;20.30;46.40;;;;;;4993447;28;20461;-81
2022/09/23 06:43:59;;;;;;;10.57;6.47;;;20.30;46.30;;;;;;4992473;28;20461;-81
2022/09/23 06:46:28;;;;;;;7.83;6.60;;;20.30;46.20;;;;;;4989562;28;20449;-81
2022/09/23 06:48:56;;;;;;;9.33;6.17;;;20.30;46.00;;;;;;4994910;28;20453;-81
2022/09/23 06:51:25;;;;;;;8.43;5.77;;;20.30;46.10;;;;;;4995435;28;20474;-80
2022/09/23 06:53:54;;;;;;;7.30;5.90;;;20.30;46.00;;;;;;4997336;28;20449;-80
2022/09/23 06:56:22;;;;;;;9.80;6.13;;;20.20;46.20;;;;;;4989347;28;20428;-80
2022/09/23 06:58:51;;;;;;;9.43;6.40;;;20.30;46.30;;;;;;4991548;28;20465;-80
2022/09/23 07:01:20;;;;;;;8.13;5.90;;;20.40;46.10;;;;;;4996289;28;20517;-81
2022/09/23 07:03:48;;;;;;;7.40;5.83;;;20.30;45.60;;;;;;4995095;28;20457;-81
2022/09/23 07:06:17;;;;;;;7.90;5.97;;;20.30;45.90;;;;;;4997315;28;20457;-81
2022/09/23 07:08:47;;;;;;;6.50;5.80;;;20.30;46.20;;;;;;4989131;28;20473;-80
2022/09/23 07:11:18;;;;;;;6.97;5.30;;;20.30;45.70;;;;;;4989464;28;20477;-82
2022/09/23 07:13:46;;;;;;;9.50;5.90;;;20.30;46.10;;;;;;4991574;28;20462;-80
2022/09/23 07:16:14;;;;;;;6.07;5.47;;;20.30;46.00;;;;;;4989285;28;20457;-80
2022/09/23 07:18:43;;;;;;;6.63;5.33;;;20.40;45.90;;;;;;4992354;28;20492;-80
2022/09/23 07:21:13;;;;;;;6.17;5.47;;;20.40;46.00;;;;;;4990296;28;20511;-80
2022/09/23 07:23:42;;;;;;;5.83;5.23;;;20.40;45.60;;;;;;4992175;28;20449;-81
2022/09/23 07:26:12;;;;;;;5.57;5.07;;;20.50;45.80;;;;;;4995283;28;20461;-80
2022/09/23 07:28:40;;;;;;;5.57;5.00;;;20.50;45.50;;;;;;4982856;28;20461;-81
2022/09/23 07:31:13;;;;;;;9.70;5.13;;;20.60;45.40;;;;;;4996124;28;20473;-81
2022/09/23 07:33:43;;;;;;;6.37;5.40;;;20.60;45.50;;;;;;4990522;28;20456;-81
2022/09/23 07:36:13;;;;;;;4.80;4.40;;;20.60;45.30;;;;;;4995354;28;20503;-81
2022/09/23 07:38:41;;;;;;;6.77;5.47;;;20.60;45.40;;;;;;4984519;28;20508;-80
2022/09/23 07:41:15;;;;;;;6.50;5.30;;;20.60;45.30;;;;;;4991625;28;20478;-80
2022/09/23 07:43:44;;;;;;;5.90;4.97;;;20.60;45.30;;;;;;4993363;28;20956;-81
2022/09/23 07:46:13;;;;;;;7.60;5.37;;;20.60;45.00;;;;;;4993587;28;20464;-80
2022/09/23 07:48:41;;;;;;;5.60;4.57;;;20.60;45.10;;;;;;4988674;28;20449;-81
2022/09/23 07:51:09;;;;;;;5.03;4.53;;;20.70;45.30;;;;;;4989130;28;20473;-81
2022/09/23 07:53:38;;;;;;;6.87;4.50;;;20.70;44.90;;;;;;4990715;28;20457;-81
2022/09/23 07:56:06;;;;;;;6.53;5.00;;;20.70;45.10;;;;;;4993110;28;20435;-81
2022/09/23 07:58:36;;;;;;;5.53;4.20;;;20.70;44.90;;;;;;4994760;28;20476;-81
2022/09/23 08:01:05;;;;;;;7.07;4.50;;;20.80;44.90;;;;;;4997508;28;20515;-82
2022/09/23 08:03:33;;;;;;;4.60;4.10;;;20.80;44.80;;;;;;4987081;28;20476;-81
2022/09/23 08:06:06;;;;;;;4.90;4.40;;;20.80;44.80;;;;;;4992894;28;20453;-81
2022/09/23 08:08:34;;;;;;;4.90;4.03;;;20.90;45.00;;;;;;4985089;28;20471;-81
2022/09/23 08:11:02;;;;;;;7.80;4.60;;;21.00;44.60;;;;;;4997227;28;20468;-81
2022/09/23 08:13:30;;;;;;;4.60;3.97;;;21.20;45.40;;;;;;4989595;28;20460;-81
2022/09/23 08:16:01;;;;;;;4.03;3.73;;;21.30;44.80;;;;;;4993140;28;20453;-81
2022/09/23 08:18:29;;;;;;;5.30;4.80;;;21.50;44.60;;;;;;4991347;28;20465;-81
2022/09/23 08:20:57;;;;;;;8.53;4.43;;;21.70;44.30;;;;;;4994345;28;20456;-82
2022/09/23 08:23:25;;;;;;;5.70;4.00;;;21.90;44.20;;;;;;4990450;28;20468;-80
2022/09/23 08:25:56;;;;;;;5.50;3.90;;;22.00;44.00;;;;;;4986953;28;20453;-82
2022/09/23 08:28:26;;;;;;;4.40;4.00;;;22.10;43.60;;;;;;4987722;28;20492;-79
2022/09/23 08:30:54;;;;;;;9.23;3.40;;;22.10;44.10;;;;;;4990713;28;20477;-79
2022/09/23 08:33:24;;;;;;;5.97;3.10;;;22.60;47.50;;;;;;5001336;28;20446;-81
2022/09/23 08:35:52;;;;;;;4.70;2.90;;;22.90;48.40;;;;;;4998585;28;20431;-81
2022/09/23 08:38:20;;;;;;;3.60;3.00;;;23.10;48.50;;;;;;5001716;28;20491;-81
2022/09/23 08:40:49;;;;;;;8.10;3.30;;;23.30;48.60;;;;;;5003802;28;20477;-80
2022/09/23 08:43:21;;;;;;;3.13;2.83;;;23.40;48.50;;;;;;4992302;28;20460;-79
2022/09/23 08:45:50;;;;;;;3.27;2.97;;;23.50;48.40;;;;;;4991744;28;20517;-81
2022/09/23 08:48:21;;;;;;;5.40;2.90;;;23.60;48.60;;;;;;4988951;28;20435;-78
2022/09/23 08:50:52;;;;;;;7.13;3.43;;;23.70;48.60;;;;;;5003895;28;20580;-81
2022/09/23 08:53:23;;;;;;;4.20;3.10;;;23.80;48.50;;;;;;4997406;28;20438;-81
2022/09/23 08:55:55;;;;;;;6.57;3.40;;;23.80;48.40;;;;;;5004526;28;20446;-79
2022/09/23 08:58:42;;;;;;;4.13;3.20;;;23.90;48.20;;;;;;4998018;28;20453;-80
2022/09/23 09:01:16;;;;;;;23.17;4.10;;;23.90;48.10;;;;;;4999924;28;20471;-80
2022/09/23 09:03:46;;;;;;;10.07;3.33;;;23.90;48.40;;;;;;5006529;28;20451;-82
2022/09/23 09:06:18;;;;;;;8.83;3.80;;;23.90;48.80;;;;;;5004096;28;20447;-82
2022/09/23 09:08:51;;;;;;;17.20;3.70;;;24.00;49.60;;;;;;5003613;28;20431;-84
2022/09/23 09:11:19;;;;;;;18.00;4.00;;;24.10;50.00;;;;;;4998023;28;20477;-82
2022/09/23 09:13:51;;;;;;;16.60;4.20;;;24.10;50.00;;;;;;5001175;28;20418;-83
2022/09/23 09:16:27;;;;;;;15.63;4.17;;;24.30;49.80;;;;;;4995319;28;20428;-84
2022/09/23 09:19:21;;;;;;;7.53;3.33;;;24.40;49.60;;;;;;4996731;28;20984;-84
2022/09/23 09:21:53;;;;;;;7.10;4.20;;;24.40;49.20;;;;;;4991020;28;20470;-83
2022/09/23 09:24:25;;;;;;;16.70;4.20;;;24.60;49.20;;;;;;4995851;28;20424;-82
2022/09/23 09:26:53;;;;;;;17.43;4.37;;;24.70;49.00;;;;;;4998892;28;20411;-82
2022/09/23 09:29:24;;;;;;;14.70;4.57;;;24.70;49.00;;;;;;4986270;28;20420;-81
2022/09/23 09:32:15;;;;;;;18.63;4.53;;;24.80;49.60;;;;;;4999258;28;20455;-84
2022/09/23 09:34:47;;;;;;;36.70;4.00;;;24.90;50.10;;;;;;5004251;28;20396;-86
2022/09/23 09:37:19;;;;;;;17.10;4.03;;;24.90;50.40;;;;;;4993778;28;20953;-82
2022/09/23 09:39:47;;;;;;;13.57;4.20;;;25.00;50.50;;;;;;4994116;28;20573;-84
2022/09/23 09:42:17;;;;;;;11.77;3.73;;;25.00;50.70;;;;;;4986376;28;20440;-84
2022/09/23 09:44:49;;;;;;;23.13;4.60;;;25.10;50.80;;;;;;5002027;28;20456;-84
2022/09/23 09:47:27;;;;;;;23.57;3.80;;;25.20;50.60;;;;;;5008541;28;20419;-83
2022/09/23 09:49:57;;;;;;;13.40;4.03;;;25.20;50.50;;;;;;5005300;28;20544;-82
2022/09/23 09:52:28;;;;;;;11.73;4.10;;;25.20;50.50;;;;;;4996491;28;20456;-84
2022/09/23 09:54:59;;;;;;;14.67;4.63;;;25.30;50.60;;;;;;4999413;28;20423;-81
2022/09/23 09:57:30;;;;;;;14.10;4.37;;;25.40;50.60;;;;;;4987919;28;20457;-80
2022/09/23 10:00:18;;;;;;;12.63;4.27;;;25.50;50.40;;;;;;5000563;28;20481;-82
2022/09/23 10:02:46;;;;;;;18.13;4.13;;;25.60;50.10;;;;;;4999968;28;20452;-82
2022/09/23 10:05:25;;;;;;;17.27;4.70;;;25.60;49.90;;;;;;4997071;28;20466;-80
2022/09/23 10:07:54;;;;;;;12.60;4.33;;;25.70;49.60;;;;;;4999740;28;20442;-81
2022/09/23 10:10:23;;;;;;;12.43;4.27;;;25.70;49.40;;;;;;4985331;28;20480;-83
2022/09/23 10:13:01;;;;;;;23.17;4.63;;;25.70;49.00;;;;;;4993258;28;20469;-80
2022/09/23 10:15:32;;;;;;;13.00;4.40;;;25.70;49.10;;;;;;4986497;28;20427;-77
2022/09/23 10:18:01;;;;;;;9.50;4.20;;;25.70;48.80;;;;;;4999275;28;20453;-79
2022/09/23 10:20:37;;;;;;;13.70;4.57;;;25.70;48.90;;;;;;4999710;28;20476;-80
2022/09/23 10:23:13;;;;;;;10.03;4.00;;;25.70;48.70;;;;;;4998301;28;20468;-79
2022/09/23 10:25:55;;;;;;;16.57;3.83;;;25.80;48.70;;;;;;4998302;28;20521;-78
2022/09/23 10:28:44;;;;;;;10.23;4.00;;;25.80;48.10;;;;;;5000686;28;20428;-79
2022/09/23 10:31:13;;;;;;;9.97;4.00;;;25.80;47.80;;;;;;5001399;28;20464;-80
2022/09/23 10:33:42;;;;;;;12.23;4.10;;;25.80;47.70;;;;;;5007373;28;20456;-80
2022/09/23 10:36:11;;;;;;;13.73;4.50;;;25.90;47.60;;;;;;5005376;28;20428;-79
2022/09/23 10:38:41;;;;;;;10.93;4.47;;;25.90;47.50;;;;;;5006612;28;20419;-79
2022/09/23 10:47:15;;;;;;;6.33;4.30;;;25.90;47.30;;;;;;4986707;28;20432;-81
2022/09/23 10:50:03;;;;;;;14.27;4.50;;;25.90;47.20;;;;;;4983698;28;20440;-78
2022/09/23 10:52:52;;;;;;;11.70;4.80;;;25.90;47.00;;;;;;4987952;28;20477;-80
2022/09/23 10:55:33;;;;;;;12.97;4.73;;;25.90;46.90;;;;;;4983920;28;20471;-81
2022/09/23 10:58:26;;;;;;;17.80;4.87;;;25.90;47.00;;;;;;5000049;28;20434;-80
2022/09/23 11:01:01;;;;;;;13.10;5.40;;;25.90;47.00;;;;;;5001553;28;20477;-81
2022/09/23 11:04:00;;;;;;;7.40;5.60;;;25.90;46.80;;;;;;5004520;28;20524;-82
2022/09/23 11:06:32;;;;;;;11.03;5.60;;;25.90;46.70;;;;;;5003190;28;20435;-80
2022/09/23 11:09:08;;;;;;;8.53;5.37;;;25.90;46.80;;;;;;5004129;28;20470;-82
2022/09/23 11:11:44;;;;;;;13.90;5.47;;;25.90;46.60;;;;;;5004288;28;20422;-82
2022/09/23 11:14:20;;;;;;;9.80;5.43;;;25.90;46.40;;;;;;5001359;28;20431;-81
2022/09/23 11:16:57;;;;;;;11.87;5.93;;;25.80;46.30;;;;;;5002442;28;20809;-82
2022/09/23 11:19:36;;;;;;;14.80;6.00;;;25.80;46.20;;;;;;4998525;28;20451;-81
2022/09/23 11:22:17;;;;;;;10.97;5.67;;;25.80;46.20;;;;;;5000120;28;20473;-81
2022/09/23 11:24:56;;;;;;;14.07;7.10;;;25.70;46.20;;;;;;5002844;28;20430;-81
2022/09/23 11:27:35;;;;;;;9.73;6.60;;;25.70;46.20;;;;;;5002950;28;20416;-81
2022/09/23 11:30:08;;;;;;;10.97;6.50;;;25.70;46.30;;;;;;4997559;28;20457;-82
2022/09/23 11:33:01;;;;;;;11.03;6.97;;;25.70;46.20;;;;;;4979547;28;20442;-81
2022/09/23 11:35:34;;;;;;;10.13;7.07;;;25.70;46.20;;;;;;4979939;28;20531;-81
2022/09/23 11:38:12;;;;;;;8.40;6.97;;;25.60;46.10;;;;;;4998191;28;20421;-82
2022/09/23 11:41:02;;;;;;;12.30;7.70;;;25.60;46.20;;;;;;5009097;28;20573;-81
2022/09/23 11:43:41;;;;;;;11.40;7.40;;;25.60;46.10;;;;;;5000475;28;20532;-81
2022/09/23 11:46:17;;;;;;;9.33;6.90;;;25.60;46.20;;;;;;5001143;28;20451;-82
2022/09/23 11:49:14;;;;;;;11.40;7.30;;;25.70;46.00;;;;;;4999625;28;20434;-81
2022/09/23 11:51:57;;;;;;;8.60;6.60;;;25.80;45.90;;;;;;5001099;28;20438;-82
2022/09/23 11:57:27;;;;;;;10.63;6.00;;;26.00;45.40;;;;;;5000504;28;20484;-82
2022/09/23 12:00:25;;;;;;;9.90;6.17;;;26.10;45.30;;;;;;5003421;28;20511;-82
2022/09/23 12:03:23;;;;;;;5.80;5.20;;;26.10;45.20;;;;;;5003632;28;20514;-82
2022/09/23 12:06:11;;;;;;;6.20;5.60;;;26.20;45.20;;;;;;4984688;28;20432;-83
2022/09/23 12:09:01;;;;;;;7.30;6.17;;;26.20;45.20;;;;;;4981348;28;20456;-82
2022/09/23 12:11:41;;;;;;;8.50;5.60;;;26.20;44.80;;;;;;4988906;28;20509;-83
2022/09/23 12:14:14;;;;;;;5.90;5.10;;;26.30;44.90;;;;;;4989200;28;20493;-83
2022/09/23 12:16:55;;;;;;;7.43;5.33;;;26.30;44.60;;;;;;4988113;28;20428;-82
2022/09/23 12:19:43;;;;;;;6.40;5.77;;;26.20;44.60;;;;;;4989625;28;20827;-82
2022/09/23 12:22:23;;;;;;;8.13;6.60;;;26.20;44.80;;;;;;4994504;28;20447;-81
2022/09/23 12:24:56;;;;;;;11.30;8.20;;;25.00;41.40;;;;;;4996950;28;20508;-80
2022/09/23 12:27:36;;;;;;;21.73;13.13;;;23.80;41.40;;;;;;4996962;28;20488;-81
2022/09/23 12:30:14;;;;;;;16.20;8.50;;;23.70;43.50;;;;;;4997626;28;20552;-81
2022/09/23 12:32:49;;;;;;;8.70;6.90;;;23.70;42.90;;;;;;4996868;28;20445;-81
2022/09/23 12:39:40;;;;;;;8.90;6.40;;;22.70;44.20;;;;;;4958795;28;20409;-81
2022/09/23 12:42:14;;;;;;;8.50;7.70;;;22.00;45.30;;;;;;4974891;28;20448;-80
2022/09/23 12:45:39;;;;;;;7.40;6.60;;;21.40;45.60;;;;;;4977613;28;20454;-81
2022/09/23 12:52:13;;;;;;;9.17;7.60;;;21.30;46.80;;;;;;4997790;28;20448;-81
2022/09/23 12:54:42;;;;;;;14.50;7.67;;;21.20;46.30;;;;;;4996808;28;20528;-81
2022/09/23 13:01:18;;;;;;;14.23;7.07;;;21.20;46.80;;;;;;4900491;29;20490;-83
2022/09/23 13:07:16;;;;;;;8.27;7.47;;;21.40;47.60;;;;;;4927850;29;20440;-81
2022/09/23 13:09:47;;;;;;;9.40;7.47;;;20.90;47.40;;;;;;4934931;29;20456;-81
2022/09/23 13:12:25;;;;;;;10.07;5.40;;;20.80;49.50;;;;;;4965110;28;20449;-81
2022/09/23 13:15:05;;;;;;;4.20;3.90;;;21.90;48.20;;;;;;4977382;28;20505;-82
2022/09/23 13:17:51;;;;;;;3.67;3.37;;;22.70;46.20;;;;;;4982981;28;20445;-80
2022/09/23 13:20:37;;;;;;;4.80;3.67;;;23.30;44.80;;;;;;4989862;28;20461;-81
2022/09/23 13:23:22;;;;;;;3.87;3.10;;;23.70;43.80;;;;;;5000823;28;20492;-80
2022/09/23 13:25:51;;;;;;;2.90;2.60;;;24.10;43.20;;;;;;5004433;28;20445;-81
2022/09/23 13:28:29;;;;;;;2.70;2.50;;;24.30;42.80;;;;;;5004572;28;20452;-81
2022/09/23 13:30:57;;;;;;;4.50;2.60;;;24.40;42.40;;;;;;5005681;28;20464;-81
2022/09/23 13:33:41;;;;;;;5.70;2.57;;;24.50;42.20;;;;;;5002253;28;20531;-81
2022/09/23 13:36:13;;;;;;;3.87;2.80;;;24.70;42.00;;;;;;4998859;28;20936;-80
2022/09/23 13:38:45;;;;;;;4.90;2.70;;;24.80;42.00;;;;;;4997544;28;20445;-81
2022/09/23 13:41:17;;;;;;;4.23;2.30;;;24.80;41.70;;;;;;4998131;28;20471;-80
2022/09/23 13:43:45;;;;;;;3.57;2.60;;;24.90;41.50;;;;;;4998691;28;20453;-80